首页
METAR-TAF:

METAR-TAF

机场 :

蒙蒂基亚里

布雷西亚, 意大利

纬度: 45-24-02N, 经度: 010-18-59E, 海拔: 104米

当前天气观测

该预报发布于2小时和7分钟前的23:50 UTC
风速7节,风向北转东北
温度 11°C
湿度 58%
气压 1028 hPa
能见度10公里或以上
1500米以下无云,无积雨云

METAR: LIPO 062350Z 03007KT CAVOK 11/03 Q1028

时间: 03:57 (01:57 UTC)

预报

该预报发布于4小时和39分钟前的21:18 UTC
预报有效从06日的 18点(UTC)到 07日的 18点(UTC)
风速5节,风向多变
能见度10公里或以上
1500米以下无云,无积雨云

TAF: LIPO 062118Z 0618/0718 VRB05KT CAVOK

超过4000个机场的气象观测和天气预报(METAR&TAF报告)。

可查询的气象台以黄色和红色小点在地图上表示。

将鼠标移到小点上方,可查看气象台名称。

然后点击查看天气观测和预报。

如需切换地图:点击带黑十字的绿色按钮放大地图;点击带横线的绿色按钮缩小地图;或者点击绿色箭头查看邻近地区的地图。


METAR-TAF: